createdAt,value
2022-10-06T00:01:06.761Z,99.90
2022-10-06T00:03:37.332Z,99.90
2022-10-06T00:06:06.009Z,99.90
2022-10-06T00:08:34.865Z,99.90
2022-10-06T00:11:02.932Z,99.90
2022-10-06T00:13:31.614Z,99.90
2022-10-06T00:16:00.056Z,99.90
2022-10-06T00:18:29.039Z,99.90
2022-10-06T00:20:59.922Z,99.90
2022-10-06T00:23:29.272Z,99.90
2022-10-06T00:25:58.368Z,99.90
2022-10-06T00:28:27.281Z,99.90
2022-10-06T00:30:56.263Z,99.90
2022-10-06T00:33:25.304Z,99.90
2022-10-06T00:36:00.831Z,99.90
2022-10-06T00:38:29.661Z,99.90
2022-10-06T00:40:58.042Z,99.90
2022-10-06T00:43:50.994Z,99.90
2022-10-06T00:46:27.958Z,99.90
2022-10-06T00:49:02.023Z,99.90
2022-10-06T00:51:33.280Z,99.90
2022-10-06T00:54:02.251Z,99.90
2022-10-06T00:56:30.220Z,99.90
2022-10-06T00:58:58.032Z,99.90
2022-10-06T01:01:26.728Z,99.90
2022-10-06T01:04:00.291Z,99.90
2022-10-06T01:06:28.093Z,99.90
2022-10-06T01:08:57.410Z,99.90
2022-10-06T01:11:25.270Z,99.90
2022-10-06T01:13:53.088Z,99.90
2022-10-06T01:16:24.233Z,99.90
2022-10-06T01:18:54.264Z,99.90
2022-10-06T01:21:29.341Z,99.90
2022-10-06T01:23:58.578Z,99.90
2022-10-06T01:26:28.090Z,99.90
2022-10-06T01:28:56.520Z,99.90
2022-10-06T01:31:24.983Z,99.90
2022-10-06T01:33:53.392Z,99.90
2022-10-06T01:36:21.497Z,99.90
2022-10-06T01:38:49.297Z,99.90
2022-10-06T01:41:18.457Z,99.90
2022-10-06T01:43:46.249Z,99.90
2022-10-06T01:46:15.145Z,99.90
2022-10-06T01:48:43.041Z,99.90
2022-10-06T01:51:15.938Z,99.90
2022-10-06T01:53:44.056Z,99.90
2022-10-06T01:56:12.362Z,99.90
2022-10-06T01:58:41.549Z,99.90
2022-10-06T02:01:10.343Z,99.90
2022-10-06T02:03:39.131Z,99.90
2022-10-06T02:06:07.861Z,99.90
2022-10-06T02:08:36.389Z,99.90
2022-10-06T02:11:08.969Z,99.90
2022-10-06T02:13:37.459Z,99.90
2022-10-06T02:16:08.235Z,99.90
2022-10-06T02:18:36.149Z,99.90
2022-10-06T02:21:05.143Z,99.90
2022-10-06T02:23:33.611Z,99.90
2022-10-06T02:26:01.793Z,99.90
2022-10-06T02:28:31.154Z,99.90
2022-10-06T02:31:02.290Z,99.90
2022-10-06T02:33:32.156Z,99.90
2022-10-06T02:36:00.422Z,99.90
2022-10-06T02:38:29.166Z,99.90
2022-10-06T02:40:58.069Z,99.90
2022-10-06T02:43:28.905Z,99.90
2022-10-06T02:45:57.995Z,99.90
2022-10-06T02:48:26.945Z,99.90
2022-10-06T02:50:58.141Z,99.90
2022-10-06T02:53:26.857Z,99.90
2022-10-06T02:56:00.622Z,99.90
2022-10-06T02:58:30.842Z,99.90
2022-10-06T03:01:02.867Z,99.90
2022-10-06T03:03:31.307Z,99.90
2022-10-06T03:06:04.911Z,99.90
2022-10-06T03:08:33.186Z,99.90
2022-10-06T03:11:02.351Z,99.90
2022-10-06T03:13:30.937Z,99.90
2022-10-06T03:15:59.027Z,99.90
2022-10-06T03:18:27.427Z,99.90
2022-10-06T03:21:00.350Z,99.90
2022-10-06T03:23:29.649Z,99.90
2022-10-06T03:25:58.403Z,99.90
2022-10-06T03:28:26.838Z,99.90
2022-10-06T03:30:55.093Z,99.90
2022-10-06T03:33:22.898Z,99.90
2022-10-06T03:35:59.914Z,99.90
2022-10-06T03:38:31.287Z,99.90
2022-10-06T03:41:10.862Z,99.90
2022-10-06T03:43:41.048Z,99.90
2022-10-06T03:46:09.377Z,99.90
2022-10-06T03:48:37.355Z,99.90
2022-10-06T03:51:08.537Z,99.90
2022-10-06T03:53:37.802Z,99.90
2022-10-06T03:56:08.147Z,99.90
2022-10-06T03:58:38.367Z,99.90
2022-10-06T04:01:08.639Z,99.90
2022-10-06T04:03:37.170Z,99.90
2022-10-06T04:06:07.020Z,99.90
2022-10-06T04:08:37.971Z,99.90
2022-10-06T04:11:07.237Z,99.90
2022-10-06T04:13:35.481Z,99.90
2022-10-06T04:16:11.941Z,99.90
2022-10-06T04:18:39.903Z,99.90
2022-10-06T04:21:07.744Z,99.90
2022-10-06T04:23:36.481Z,99.90
2022-10-06T04:26:09.411Z,99.90
2022-10-06T04:28:38.096Z,99.90
2022-10-06T04:31:12.943Z,99.90
2022-10-06T04:33:40.833Z,99.90
2022-10-06T04:36:09.807Z,99.90
2022-10-06T04:38:38.170Z,99.90
2022-10-06T04:41:09.563Z,99.90
2022-10-06T04:43:37.641Z,99.90
2022-10-06T04:46:23.890Z,99.90
2022-10-06T04:48:55.416Z,99.90
2022-10-06T04:51:25.929Z,99.90
2022-10-06T04:53:54.162Z,99.90
2022-10-06T04:56:24.797Z,99.90
2022-10-06T04:58:54.753Z,99.90
2022-10-06T05:01:25.099Z,99.90
2022-10-06T05:03:55.844Z,99.90
2022-10-06T05:06:26.168Z,99.90
2022-10-06T05:08:56.273Z,99.90
2022-10-06T05:11:26.247Z,99.90
2022-10-06T05:13:55.790Z,99.90
2022-10-06T05:16:25.719Z,99.90
2022-10-06T05:18:53.991Z,99.90
2022-10-06T05:21:23.834Z,99.90
2022-10-06T05:23:51.821Z,99.90
2022-10-06T05:26:21.818Z,99.90
2022-10-06T05:28:51.193Z,99.90
2022-10-06T05:31:21.331Z,99.90
2022-10-06T05:33:49.614Z,99.90
2022-10-06T05:36:19.449Z,99.90
2022-10-06T05:38:48.011Z,99.90
2022-10-06T05:41:18.141Z,99.90
2022-10-06T05:43:46.328Z,99.90
2022-10-06T05:46:20.424Z,99.90
2022-10-06T05:48:49.126Z,99.90
2022-10-06T05:51:19.072Z,99.90
2022-10-06T05:53:47.534Z,99.90
2022-10-06T05:56:17.182Z,99.90
2022-10-06T05:58:47.093Z,99.90
2022-10-06T06:01:18.687Z,99.90
2022-10-06T06:03:50.042Z,99.90
2022-10-06T06:06:20.685Z,99.90
2022-10-06T06:08:49.436Z,99.90
2022-10-06T06:11:17.313Z,99.90
2022-10-06T06:13:45.150Z,99.90
2022-10-06T06:16:14.617Z,99.90
2022-10-06T06:18:43.902Z,99.90
2022-10-06T06:21:12.125Z,99.90
2022-10-06T06:23:41.697Z,99.90
2022-10-06T06:26:12.025Z,99.90
2022-10-06T06:28:40.244Z,99.90
2022-10-06T06:31:10.177Z,99.90
2022-10-06T06:33:39.595Z,99.90
2022-10-06T06:36:15.392Z,99.90
2022-10-06T06:38:43.551Z,99.90
2022-10-06T06:41:15.779Z,99.90
2022-10-06T06:43:43.883Z,99.90
2022-10-06T06:46:12.162Z,99.90
2022-10-06T06:48:40.357Z,99.90
2022-10-06T06:51:10.847Z,99.90
2022-10-06T06:53:40.524Z,99.90
2022-10-06T06:56:09.716Z,99.90
2022-10-06T06:58:37.844Z,99.90
2022-10-06T07:01:08.124Z,99.90
2022-10-06T07:03:56.747Z,99.90
2022-10-06T07:06:28.159Z,99.90
2022-10-06T07:08:58.763Z,99.90
2022-10-06T07:11:29.063Z,99.90
2022-10-06T07:14:01.092Z,99.90
2022-10-06T07:16:47.409Z,99.90
2022-10-06T07:19:33.715Z,99.90
2022-10-06T07:22:21.064Z,99.90
2022-10-06T07:25:08.364Z,99.90
2022-10-06T07:27:42.077Z,99.90
2022-10-06T07:30:11.250Z,99.90
2022-10-06T07:32:39.216Z,99.90
2022-10-06T07:35:07.890Z,99.90
2022-10-06T07:37:38.415Z,99.90
2022-10-06T07:40:09.325Z,99.90
2022-10-06T07:42:48.820Z,99.90
2022-10-06T07:45:36.126Z,99.90
2022-10-06T07:48:05.396Z,99.90
2022-10-06T07:50:33.651Z,99.90
2022-10-06T07:53:07.569Z,99.90
2022-10-06T07:55:39.994Z,99.90
2022-10-06T07:58:13.458Z,99.90
2022-10-06T08:00:41.717Z,99.90
2022-10-06T08:03:11.165Z,99.90
2022-10-06T08:05:39.954Z,99.90
2022-10-06T08:08:08.290Z,99.90
2022-10-06T08:10:37.550Z,99.90
2022-10-06T08:13:06.823Z,99.90
2022-10-06T08:15:34.758Z,99.90
2022-10-06T08:18:09.021Z,99.90
2022-10-06T08:20:49.651Z,99.90
2022-10-06T08:23:17.645Z,99.90
2022-10-06T08:25:53.600Z,99.90
2022-10-06T08:28:22.545Z,99.90
2022-10-06T08:30:51.391Z,99.90
2022-10-06T08:33:21.602Z,99.90
2022-10-06T08:35:49.540Z,99.90
2022-10-06T08:38:18.006Z,99.90
2022-10-06T08:40:47.498Z,99.90
2022-10-06T08:43:23.097Z,99.90
2022-10-06T08:46:01.910Z,99.90
2022-10-06T08:48:38.661Z,99.90
2022-10-06T08:51:18.664Z,99.90
2022-10-06T08:53:58.044Z,99.90
2022-10-06T08:56:28.183Z,99.90
2022-10-06T08:58:58.787Z,99.90
2022-10-06T09:01:29.766Z,99.90
2022-10-06T09:04:01.782Z,99.90
2022-10-06T09:06:41.189Z,99.90
2022-10-06T09:09:21.705Z,99.90
2022-10-06T09:12:01.283Z,99.90
2022-10-06T09:14:37.532Z,99.90
2022-10-06T09:17:10.830Z,99.90
2022-10-06T09:19:44.761Z,99.90
2022-10-06T09:22:19.573Z,99.90
2022-10-06T09:24:50.552Z,99.90
2022-10-06T09:27:21.975Z,99.90
2022-10-06T09:29:53.252Z,99.90
2022-10-06T09:32:23.802Z,99.90
2022-10-06T09:34:53.775Z,99.90
2022-10-06T09:37:21.600Z,99.90
2022-10-06T09:39:51.496Z,99.90
2022-10-06T09:42:22.708Z,99.90
2022-10-06T09:44:59.179Z,99.90
2022-10-06T09:47:45.048Z,99.90
2022-10-06T09:50:22.692Z,99.90
2022-10-06T09:53:16.283Z,99.90
2022-10-06T09:55:51.330Z,99.90
2022-10-06T09:58:31.396Z,99.90
2022-10-06T10:01:02.183Z,99.90
2022-10-06T10:04:02.021Z,99.90
2022-10-06T10:06:34.492Z,99.90
2022-10-06T10:09:26.963Z,99.90
2022-10-06T10:12:27.796Z,99.90
2022-10-06T10:14:58.890Z,99.90
2022-10-06T10:17:41.054Z,99.90
2022-10-06T10:20:27.874Z,99.90
2022-10-06T10:22:57.092Z,99.90
2022-10-06T10:25:41.379Z,99.90
2022-10-06T10:28:21.118Z,99.90
2022-10-06T10:30:56.466Z,99.90
2022-10-06T10:33:33.062Z,99.90
2022-10-06T10:36:04.112Z,99.90
2022-10-06T10:38:32.754Z,99.90
2022-10-06T10:41:05.510Z,99.90
2022-10-06T10:43:37.070Z,99.90
2022-10-06T10:46:12.339Z,99.90
2022-10-06T10:48:47.081Z,99.90
2022-10-06T10:51:22.740Z,99.90
2022-10-06T10:53:53.476Z,99.90
2022-10-06T10:56:24.460Z,99.90
2022-10-06T10:58:57.055Z,99.90
2022-10-06T11:01:32.376Z,99.90
2022-10-06T11:04:02.198Z,99.90
2022-10-06T11:06:54.293Z,99.90
2022-10-06T11:09:27.217Z,99.90
2022-10-06T11:12:05.579Z,99.90
2022-10-06T11:14:59.597Z,94.60
2022-10-06T11:17:42.828Z,83.10
2022-10-06T11:20:34.018Z,70.80
2022-10-06T11:23:18.922Z,63.20
2022-10-06T11:25:53.094Z,59.30
2022-10-06T11:28:25.796Z,55.80
2022-10-06T11:31:07.208Z,54.50
2022-10-06T11:33:43.007Z,52.90
2022-10-06T11:36:18.037Z,51.40
2022-10-06T11:38:53.407Z,51.60
2022-10-06T11:41:26.823Z,53.00
2022-10-06T11:44:00.712Z,54.80
2022-10-06T11:46:36.149Z,56.80
2022-10-06T11:49:53.227Z,58.70
2022-10-06T11:52:47.319Z,60.70
2022-10-06T11:55:18.958Z,64.20
2022-10-06T12:01:08.032Z,68.90
2022-10-06T12:03:47.329Z,69.80
2022-10-06T12:06:53.485Z,71.10
2022-10-06T12:09:46.080Z,73.00
2022-10-06T12:13:06.727Z,75.10
2022-10-06T12:17:08.369Z,77.80
2022-10-06T12:18:51.149Z,79.40
2022-10-06T12:21:27.687Z,80.70
2022-10-06T12:24:05.614Z,79.00
2022-10-06T12:26:47.001Z,75.30
2022-10-06T12:29:37.946Z,73.40
2022-10-06T12:32:22.457Z,68.50
2022-10-06T12:35:03.064Z,61.60
2022-10-06T12:37:41.651Z,58.30
2022-10-06T12:40:47.632Z,56.90
2022-10-06T12:43:44.818Z,57.20
2022-10-06T12:46:41.534Z,58.90
2022-10-06T12:49:32.006Z,61.10
2022-10-06T12:52:09.462Z,64.10
2022-10-06T12:54:47.211Z,66.30
2022-10-06T12:57:20.034Z,68.40
2022-10-06T12:59:50.047Z,70.10
2022-10-06T13:02:20.607Z,71.80
2022-10-06T13:04:53.108Z,73.50
2022-10-06T13:07:23.011Z,75.10
2022-10-06T13:09:53.853Z,76.30
2022-10-06T13:12:28.001Z,77.60
2022-10-06T13:15:19.928Z,78.20
2022-10-06T13:17:51.272Z,79.70
2022-10-06T13:20:27.821Z,80.20
2022-10-06T13:23:00.862Z,80.30
2022-10-06T13:25:36.389Z,79.30
2022-10-06T13:28:04.459Z,79.20
2022-10-06T13:30:38.424Z,76.40
2022-10-06T13:33:08.926Z,72.60
2022-10-06T13:35:36.796Z,69.20
2022-10-06T13:38:06.366Z,68.00
2022-10-06T13:40:50.377Z,68.80
2022-10-06T13:43:20.259Z,68.40
2022-10-06T13:45:49.820Z,68.30
2022-10-06T13:48:22.342Z,70.30
2022-10-06T13:50:52.922Z,71.50
2022-10-06T13:53:27.107Z,74.20
2022-10-06T13:55:55.640Z,74.50
2022-10-06T13:58:27.814Z,75.70
2022-10-06T14:01:00.658Z,76.20
2022-10-06T14:03:33.840Z,77.20
2022-10-06T14:06:14.543Z,77.60
2022-10-06T14:08:44.359Z,78.50
2022-10-06T14:11:12.312Z,77.60
2022-10-06T14:13:48.287Z,77.40
2022-10-06T14:16:23.336Z,77.20
2022-10-06T14:18:56.675Z,77.60
2022-10-06T14:21:35.542Z,78.20
2022-10-06T14:24:07.560Z,78.70
2022-10-06T14:26:38.258Z,79.80
2022-10-06T14:29:06.124Z,80.40
2022-10-06T14:31:35.735Z,81.50
2022-10-06T14:34:04.933Z,82.70
2022-10-06T14:36:34.979Z,83.50
2022-10-06T14:39:03.728Z,84.20
2022-10-06T14:41:32.378Z,84.70
2022-10-06T14:44:02.356Z,85.90
2022-10-06T14:46:30.945Z,86.30
2022-10-06T14:49:00.658Z,86.40
2022-10-06T14:51:30.983Z,86.30
2022-10-06T14:54:01.476Z,86.30
2022-10-06T14:56:31.734Z,86.80
2022-10-06T14:59:02.210Z,88.10
2022-10-06T15:01:30.153Z,88.60
2022-10-06T15:04:01.880Z,89.40
2022-10-06T15:06:47.599Z,89.90
2022-10-06T15:09:15.605Z,90.00
2022-10-06T15:11:43.552Z,90.00
2022-10-06T15:14:11.718Z,90.30
2022-10-06T15:16:42.209Z,90.40
2022-10-06T15:19:12.700Z,90.60
2022-10-06T15:21:41.155Z,90.90
2022-10-06T15:24:11.860Z,91.30
2022-10-06T15:26:57.003Z,91.50
2022-10-06T15:29:24.834Z,91.40
2022-10-06T15:31:54.593Z,91.90
2022-10-06T15:34:26.233Z,92.10
2022-10-06T15:36:55.602Z,92.10
2022-10-06T15:39:24.998Z,92.40
2022-10-06T15:41:53.552Z,92.70
2022-10-06T15:44:22.184Z,92.90
2022-10-06T15:46:51.232Z,93.20
2022-10-06T15:49:20.893Z,93.40
2022-10-06T15:51:52.808Z,93.70
2022-10-06T15:54:22.320Z,94.80
2022-10-06T15:56:52.199Z,94.60
2022-10-06T15:59:23.906Z,94.60
2022-10-06T16:01:56.049Z,94.90
2022-10-06T16:04:31.708Z,95.00
2022-10-06T16:07:01.372Z,95.80
2022-10-06T16:09:30.937Z,96.40
2022-10-06T16:12:00.166Z,97.00
2022-10-06T16:14:28.074Z,97.90
2022-10-06T16:16:59.809Z,98.80
2022-10-06T16:19:29.220Z,99.60
2022-10-06T16:21:59.124Z,99.90
2022-10-06T16:24:28.642Z,99.90
2022-10-06T16:26:57.944Z,99.90
2022-10-06T16:29:25.866Z,99.90
2022-10-06T16:31:54.122Z,99.90
2022-10-06T16:34:22.184Z,99.90
2022-10-06T16:36:50.207Z,99.90
2022-10-06T16:39:19.991Z,99.90
2022-10-06T16:41:50.183Z,99.90
2022-10-06T16:44:18.655Z,99.90
2022-10-06T16:46:46.760Z,99.90
2022-10-06T16:49:14.741Z,99.90
2022-10-06T16:51:45.604Z,99.90
2022-10-06T16:54:15.506Z,99.90
2022-10-06T16:56:44.926Z,99.90
2022-10-06T16:59:16.017Z,99.90
2022-10-06T17:01:44.339Z,99.90
2022-10-06T17:04:14.267Z,99.90
2022-10-06T17:06:45.287Z,99.90
2022-10-06T17:09:14.986Z,99.90
2022-10-06T17:11:44.078Z,99.90
2022-10-06T17:14:12.883Z,99.90
2022-10-06T17:16:44.465Z,99.90
2022-10-06T17:19:14.029Z,99.90
2022-10-06T17:21:47.458Z,99.90
2022-10-06T17:24:18.103Z,99.90
2022-10-06T17:26:47.970Z,99.90
2022-10-06T17:29:18.664Z,99.90
2022-10-06T17:31:49.297Z,99.90
2022-10-06T17:34:21.138Z,99.90
2022-10-06T17:36:52.137Z,99.90
2022-10-06T17:39:22.282Z,99.90
2022-10-06T17:41:52.378Z,99.90
2022-10-06T17:44:23.224Z,99.90
2022-10-06T17:46:55.295Z,99.90
2022-10-06T17:49:24.829Z,99.90
2022-10-06T17:51:54.123Z,99.90
2022-10-06T17:54:24.192Z,99.90
2022-10-06T17:56:54.104Z,99.90
2022-10-06T17:59:24.560Z,99.90
2022-10-06T18:01:56.837Z,99.90
2022-10-06T18:04:28.742Z,99.90
2022-10-06T18:06:57.369Z,99.90
2022-10-06T18:09:25.690Z,99.90
2022-10-06T18:11:56.535Z,99.90
2022-10-06T18:14:26.762Z,99.90
2022-10-06T18:16:58.382Z,99.90
2022-10-06T18:19:29.673Z,99.90
2022-10-06T18:21:59.193Z,99.90
2022-10-06T18:24:29.528Z,99.90
2022-10-06T18:26:59.745Z,99.90
2022-10-06T18:29:30.703Z,99.90
2022-10-06T18:32:27.241Z,99.90
2022-10-06T18:37:36.519Z,99.90
2022-10-06T18:40:09.952Z,99.90
2022-10-06T18:42:40.636Z,99.90
2022-10-06T18:45:27.743Z,99.90
2022-10-06T18:48:14.361Z,99.90
2022-10-06T18:50:42.655Z,99.90
2022-10-06T18:53:10.610Z,99.90
2022-10-06T18:55:38.499Z,99.90
2022-10-06T18:58:06.534Z,99.90
2022-10-06T19:00:34.943Z,99.90
2022-10-06T19:03:04.433Z,99.90
2022-10-06T19:05:32.620Z,99.90
2022-10-06T19:08:00.936Z,99.90
2022-10-06T19:10:29.777Z,99.90
2022-10-06T19:12:58.315Z,99.90
2022-10-06T19:15:26.198Z,99.90
2022-10-06T19:17:54.122Z,99.90
2022-10-06T19:20:23.580Z,99.90
2022-10-06T19:22:51.785Z,99.90
2022-10-06T19:25:19.658Z,99.90
2022-10-06T19:27:48.335Z,99.90
2022-10-06T19:30:16.411Z,99.90
2022-10-06T19:32:44.355Z,99.90
2022-10-06T19:35:12.643Z,99.90
2022-10-06T19:37:42.098Z,99.90
2022-10-06T19:40:11.366Z,99.90
2022-10-06T19:42:47.583Z,99.90
2022-10-06T19:45:16.418Z,99.90
2022-10-06T19:47:45.739Z,99.90
2022-10-06T19:50:14.561Z,99.90
2022-10-06T19:52:43.945Z,99.90
2022-10-06T19:55:11.880Z,99.90
2022-10-06T19:57:40.108Z,99.90
2022-10-06T20:00:10.318Z,99.90
2022-10-06T20:02:42.151Z,99.90
2022-10-06T20:05:11.867Z,99.90
2022-10-06T20:07:40.370Z,99.90
2022-10-06T20:10:11.644Z,99.90
2022-10-06T20:12:42.143Z,99.90
2022-10-06T20:15:12.863Z,99.90
2022-10-06T20:17:44.411Z,99.90
2022-10-06T20:20:13.654Z,99.90
2022-10-06T20:22:41.840Z,99.90
2022-10-06T20:25:11.687Z,99.90
2022-10-06T20:27:39.531Z,99.90
2022-10-06T20:30:08.799Z,99.90
2022-10-06T20:32:36.691Z,99.90
2022-10-06T20:35:04.813Z,99.90
2022-10-06T20:37:32.658Z,99.90
2022-10-06T20:40:18.146Z,99.90
2022-10-06T20:42:49.530Z,99.90
2022-10-06T20:45:19.408Z,99.90
2022-10-06T20:47:47.799Z,99.90
2022-10-06T20:50:15.841Z,99.90
2022-10-06T20:52:43.685Z,99.90
2022-10-06T20:55:11.831Z,99.90
2022-10-06T20:57:39.905Z,99.90
2022-10-06T21:00:11.351Z,99.90
2022-10-06T21:02:40.255Z,99.90
2022-10-06T21:05:10.026Z,99.90
2022-10-06T21:07:38.046Z,99.90
2022-10-06T21:10:07.078Z,99.90
2022-10-06T21:12:34.949Z,99.90
2022-10-06T21:15:03.697Z,99.90
2022-10-06T21:17:32.866Z,99.90
2022-10-06T21:20:00.732Z,99.90
2022-10-06T21:22:31.274Z,99.90
2022-10-06T21:24:59.116Z,99.90
2022-10-06T21:27:27.006Z,99.90
2022-10-06T21:29:55.030Z,99.90
2022-10-06T21:32:22.889Z,99.90
2022-10-06T21:34:56.402Z,99.90
2022-10-06T21:37:24.311Z,99.90
2022-10-06T21:39:52.147Z,99.90
2022-10-06T21:42:20.073Z,99.90
2022-10-06T21:44:47.947Z,99.90
2022-10-06T21:47:15.942Z,99.90
2022-10-06T21:49:43.979Z,99.90
2022-10-06T21:52:13.219Z,99.90
2022-10-06T21:54:41.280Z,99.90
2022-10-06T21:57:09.201Z,99.90
2022-10-06T21:59:37.254Z,99.90
2022-10-06T22:02:05.307Z,99.90
2022-10-06T22:04:33.249Z,99.90
2022-10-06T22:07:01.188Z,99.90
2022-10-06T22:09:30.423Z,99.90
2022-10-06T22:11:58.484Z,99.90
2022-10-06T22:14:26.491Z,99.90
2022-10-06T22:16:54.380Z,99.90
2022-10-06T22:19:22.373Z,99.90
2022-10-06T22:21:50.256Z,99.90
2022-10-06T22:24:20.455Z,99.90
2022-10-06T22:26:50.393Z,99.90
2022-10-06T22:29:19.846Z,99.90
2022-10-06T22:31:48.717Z,99.90
2022-10-06T22:34:18.793Z,99.90
2022-10-06T22:36:47.049Z,99.90
2022-10-06T22:39:14.933Z,99.90
2022-10-06T22:41:43.170Z,99.90
2022-10-06T22:44:12.401Z,99.90
2022-10-06T22:46:40.293Z,99.90
2022-10-06T22:49:08.198Z,99.90
2022-10-06T22:51:36.441Z,99.90
2022-10-06T22:54:04.555Z,99.90
2022-10-06T22:56:33.769Z,99.90
2022-10-06T22:59:02.122Z,99.90
2022-10-06T23:01:31.580Z,99.90
2022-10-06T23:03:59.639Z,99.90
2022-10-06T23:06:29.604Z,99.90
2022-10-06T23:08:57.819Z,99.90
2022-10-06T23:11:25.918Z,99.90
2022-10-06T23:13:53.754Z,99.90
2022-10-06T23:16:22.891Z,99.90
2022-10-06T23:18:52.223Z,99.90
2022-10-06T23:21:22.530Z,99.90
2022-10-06T23:23:52.072Z,99.90
2022-10-06T23:26:20.526Z,99.90
2022-10-06T23:28:52.369Z,99.90
2022-10-06T23:31:20.244Z,99.90
2022-10-06T23:33:48.400Z,99.90
2022-10-06T23:36:18.664Z,99.90
2022-10-06T23:38:47.265Z,99.90
2022-10-06T23:41:15.919Z,99.90
2022-10-06T23:43:43.810Z,99.90
2022-10-06T23:46:12.038Z,99.90
2022-10-06T23:48:40.195Z,99.90
2022-10-06T23:51:10.333Z,99.90
2022-10-06T23:53:40.398Z,99.90
2022-10-06T23:56:09.087Z,99.90
2022-10-06T23:58:37.005Z,99.90
